Time;durP1;ratioP1;P1;durP2;ratioP2;P2;SDS_P1;SDS_P2;PMS_P1;PMS_P2;Temp;Humidity;BMP_temperature;BMP_pressure;BME280_temperature;BME280_humidity;BME280_pressure;Samples;Min_cycle;Max_cycle;Signal;HPM_P1;HPM_P2
2022/12/26 00:04:25;;;;;;;1.73;1.45;;;;;;;8.87;100.00;99516.31;10420478;28;20518;-69
2022/12/26 00:09:47;;;;;;;1.38;1.02;;;;;;;9.20;100.00;99514.28;10421326;28;20403;-70
2022/12/26 00:14:49;;;;;;;1.30;0.95;;;;;;;9.59;97.67;99533.03;10421217;28;20045;-69
2022/12/26 00:19:50;;;;;;;1.20;0.77;;;;;;;10.16;92.69;99525.69;10420591;28;20103;-70
2022/12/26 00:24:52;;;;;;;1.13;0.90;;;;;;;10.10;93.04;99526.78;10420334;28;20055;-69
2022/12/26 00:29:54;;;;;;;1.48;0.98;;;;;;;10.24;91.68;99535.03;10420973;28;20064;-69
2022/12/26 00:34:55;;;;;;;3.15;1.05;;;;;;;10.07;93.31;99537.41;10419211;28;20121;-70
2022/12/26 00:39:57;;;;;;;3.13;1.35;;;;;;;9.93;94.19;99531.81;10418769;28;20045;-70
2022/12/26 00:44:59;;;;;;;1.95;1.17;;;;;;;9.86;95.04;99532.03;10418714;28;20078;-70
2022/12/26 00:50:01;;;;;;;1.33;0.93;;;;;;;9.83;95.40;99528.69;10419910;28;20574;-70
2022/12/26 00:55:15;;;;;;;2.13;1.10;;;;;;;9.64;96.74;99523.22;10420585;28;20052;-70
2022/12/26 01:00:17;;;;;;;1.17;1.00;;;;;;;9.55;97.50;99507.81;10419156;28;20414;-70
2022/12/26 01:05:19;;;;;;;2.22;1.95;;;;;;;9.43;97.19;99519.63;10419814;28;20045;-70
2022/12/26 01:10:20;;;;;;;4.53;4.07;;;;;;;9.13;99.28;99512.81;10418953;28;20051;-70
2022/12/26 01:15:22;;;;;;;6.03;5.53;;;;;;;8.94;100.00;99528.28;10417491;28;20045;-70
2022/12/26 01:20:24;;;;;;;5.43;5.03;;;;;;;8.76;100.00;99538.44;10418438;28;20384;-70
2022/12/26 01:25:26;;;;;;;7.40;6.65;;;;;;;8.66;100.00;99528.31;10418432;28;20049;-70
2022/12/26 01:30:27;;;;;;;5.95;5.35;;;;;;;8.64;100.00;99522.28;10418294;28;20033;-70
2022/12/26 01:35:29;;;;;;;6.07;5.38;;;;;;;8.74;100.00;99521.09;10417907;28;20034;-70
2022/12/26 01:40:31;;;;;;;8.07;5.38;;;;;;;8.47;100.00;99515.81;10416096;28;20096;-70
2022/12/26 01:45:32;;;;;;;6.05;5.45;;;;;;;8.61;100.00;99519.75;10417351;28;20045;-70
2022/12/26 01:51:00;;;;;;;6.57;6.00;;;;;;;8.84;100.00;99509.38;10415889;28;20038;-70
2022/12/26 01:56:09;;;;;;;3.90;3.55;;;;;;;9.02;100.00;99514.00;10415865;28;20068;-70
2022/12/26 02:01:11;;;;;;;2.88;2.00;;;;;;;9.41;98.80;99504.81;10416678;28;20444;-70
2022/12/26 02:06:14;;;;;;;1.40;1.10;;;;;;;10.17;92.79;99506.38;10415742;28;20100;-69
2022/12/26 02:11:27;;;;;;;1.60;1.20;;;;;;;10.73;87.47;99508.59;10416424;28;20128;-70
2022/12/26 02:16:29;;;;;;;1.50;1.00;;;;;;;11.21;83.62;99503.06;10415783;28;20046;-70
2022/12/26 02:21:31;;;;;;;1.92;1.00;;;;;;;11.42;81.59;99505.66;10415772;28;20057;-70
2022/12/26 02:26:47;;;;;;;1.90;1.30;;;;;;;11.26;82.23;99521.28;10415760;28;20049;-70
2022/12/26 02:32:02;;;;;;;2.47;1.48;;;;;;;11.37;80.73;99522.50;10415754;28;20049;-70
2022/12/26 02:37:23;;;;;;;1.40;1.10;;;;;;;11.18;82.21;99511.06;10415491;28;20037;-70
2022/12/26 02:42:38;;;;;;;1.85;1.13;;;;;;;11.54;79.52;99513.88;10416054;28;20049;-70
2022/12/26 02:48:02;;;;;;;1.98;1.38;;;;;;;11.31;80.78;99514.03;10414266;28;20049;-70
2022/12/26 03:15:03;;;;;;;1.60;1.30;;;;;;;11.17;80.97;99509.38;10414565;28;20140;-69
2022/12/26 03:20:14;;;;;;;1.92;1.48;;;;;;;11.11;81.59;99499.97;10413134;28;20037;-69
2022/12/26 03:31:00;;;;;;;1.40;1.30;;;;;;;10.97;83.02;99485.66;10422633;28;20045;-69
2022/12/26 03:36:03;;;;;;;3.13;1.20;;;;;;;11.08;82.53;99491.34;10422997;28;20053;-68
2022/12/26 04:20:23;;;;;;;1.02;0.90;;;;;;;12.46;73.28;99529.94;10420658;28;20037;-68
2022/12/26 04:47:16;;;;;;;2.92;0.90;;;;;;;12.70;72.34;99518.19;10420951;28;20055;-68
2022/12/26 04:52:17;;;;;;;1.15;0.70;;;;;;;12.51;73.11;99525.28;10419467;28;20406;-68
2022/12/26 04:57:19;;;;;;;1.17;0.88;;;;;;;12.56;73.07;99521.50;10418928;28;20124;-68
2022/12/26 05:13:01;;;;;;;1.70;1.05;;;;;;;12.63;73.21;99516.81;10419351;28;20380;-69
2022/12/26 05:28:53;;;;;;;1.50;1.20;;;;;;;12.50;73.64;99516.53;10417927;28;20440;-69
2022/12/26 05:34:05;;;;;;;2.65;1.13;;;;;;;12.65;73.14;99501.75;10417358;28;20042;-69
2022/12/26 05:39:08;;;;;;;3.08;1.38;;;;;;;12.58;73.58;99524.09;10418312;28;20475;-69
2022/12/26 05:44:10;;;;;;;1.60;1.02;;;;;;;12.68;72.79;99527.97;10418073;28;20457;-68
2022/12/26 05:49:12;;;;;;;1.67;1.17;;;;;;;12.49;74.00;99513.97;10417151;28;20052;-68
2022/12/26 05:54:13;;;;;;;1.25;1.10;;;;;;;12.62;72.59;99515.09;10417194;28;20037;-68
2022/12/26 05:59:15;;;;;;;2.55;1.50;;;;;;;12.57;73.02;99512.69;10416714;28;20065;-68
2022/12/26 06:04:17;;;;;;;1.65;1.13;;;;;;;12.51;73.24;99526.13;10417313;28;20091;-69
2022/12/26 06:09:18;;;;;;;4.97;1.20;;;;;;;12.38;74.21;99527.66;10416472;28;20041;-68
2022/12/26 06:14:20;;;;;;;2.03;1.08;;;;;;;12.40;74.40;99514.41;10416773;28;20042;-69
2022/12/26 06:19:22;;;;;;;2.13;1.20;;;;;;;12.45;73.94;99513.25;10416366;28;20490;-68
2022/12/26 06:24:23;;;;;;;2.40;1.40;;;;;;;12.42;73.87;99505.50;10416413;28;20056;-70
2022/12/26 06:29:25;;;;;;;2.75;1.38;;;;;;;12.37;74.05;99489.06;10416432;28;20414;-68
2022/12/26 06:34:27;;;;;;;1.75;1.20;;;;;;;12.48;73.57;99494.66;10416766;28;20052;-68
2022/12/26 06:39:28;;;;;;;2.50;1.33;;;;;;;12.45;73.97;99512.41;10414323;28;20045;-68
2022/12/26 06:44:30;;;;;;;2.35;1.13;;;;;;;12.46;74.07;99514.97;10414149;28;20053;-69
2022/12/26 06:49:32;;;;;;;2.08;1.25;;;;;;;12.44;74.06;99532.66;10413863;28;20466;-68
2022/12/26 06:54:34;;;;;;;1.98;1.13;;;;;;;12.29;75.09;99542.13;10415216;28;20452;-69
2022/12/26 06:59:35;;;;;;;3.25;1.20;;;;;;;12.47;73.87;99548.31;10414277;28;20567;-68
2022/12/26 07:04:37;;;;;;;1.63;1.20;;;;;;;12.53;73.00;99558.56;10414888;28;20072;-69
2022/12/26 07:09:39;;;;;;;1.73;0.98;;;;;;;12.59;72.76;99557.41;10414777;28;20077;-69
2022/12/26 07:14:40;;;;;;;2.00;1.33;;;;;;;12.45;73.30;99549.31;10414149;28;20056;-70
2022/12/26 07:19:42;;;;;;;2.00;1.15;;;;;;;12.19;74.76;99572.47;10414549;28;20072;-68
2022/12/26 07:24:44;;;;;;;1.60;1.10;;;;;;;12.26;74.45;99570.38;10414584;28;20056;-68
2022/12/26 07:29:46;;;;;;;2.40;1.20;;;;;;;12.27;74.31;99574.75;10414739;28;20041;-69
2022/12/26 07:34:47;;;;;;;1.98;1.40;;;;;;;12.29;74.31;99573.75;10413005;28;20423;-68
2022/12/26 07:39:49;;;;;;;1.70;1.10;;;;;;;12.34;74.02;99591.97;10414032;28;20042;-68
2022/12/26 07:44:59;;;;;;;4.22;1.30;;;;;;;12.19;74.61;99590.06;10414928;28;20438;-69
2022/12/26 07:50:01;;;;;;;1.33;1.02;;;;;;;12.09;74.89;99579.94;10413083;28;20046;-68
2022/12/26 07:55:03;;;;;;;1.63;1.17;;;;;;;12.14;74.54;99597.31;10414094;28;20474;-69
2022/12/26 08:00:05;;;;;;;2.70;1.33;;;;;;;12.23;74.14;99608.28;10413515;28;20042;-69
2022/12/26 08:05:12;;;;;;;2.63;1.33;;;;;;;12.38;72.97;99604.09;10414382;28;20499;-68
2022/12/26 08:10:15;;;;;;;1.23;0.80;;;;;;;12.35;72.69;99584.00;10413658;28;20046;-68
2022/12/26 08:15:17;;;;;;;1.83;1.33;;;;;;;12.28;73.62;99602.81;10419106;28;20064;-69
2022/12/26 08:20:19;;;;;;;1.67;0.90;;;;;;;12.43;72.96;99607.38;10420910;28;20399;-69
2022/12/26 08:25:21;;;;;;;2.65;1.10;;;;;;;12.68;71.18;99612.34;10420829;28;20406;-69
2022/12/26 08:30:22;;;;;;;1.30;0.93;;;;;;;12.75;71.06;99602.34;10420579;28;20053;-69
2022/12/26 08:35:24;;;;;;;6.72;1.13;;;;;;;12.72;71.20;99600.75;10420520;28;20053;-69
2022/12/26 08:40:26;;;;;;;1.30;1.00;;;;;;;12.74;71.22;99609.41;10419846;28;20037;-69
2022/12/26 08:45:43;;;;;;;1.58;1.10;;;;;;;12.68;71.86;99593.91;10418592;28;20049;-69
2022/12/26 08:50:45;;;;;;;1.30;1.00;;;;;;;12.79;70.83;99598.66;10401867;28;20056;-69
2022/12/26 08:55:47;;;;;;;1.50;1.00;;;;;;;12.74;71.43;99605.94;10419389;28;20041;-69
2022/12/26 09:00:49;;;;;;;1.33;0.88;;;;;;;12.74;70.81;99605.94;10378692;22;20046;-74
2022/12/26 09:05:59;;;;;;;1.52;1.10;;;;;;;12.71;71.09;99598.19;10340507;28;20514;-74
2022/12/26 09:11:10;;;;;;;2.20;1.10;;;;;;;12.80;70.85;99608.28;10342232;28;20047;-75
2022/12/26 09:16:15;;;;;;;1.88;1.25;;;;;;;12.73;71.32;99610.34;10342213;28;20137;-75
2022/12/26 09:21:17;;;;;;;2.45;1.00;;;;;;;12.86;70.58;99621.19;10322985;28;20559;-74
2022/12/26 09:26:19;;;;;;;1.45;1.10;;;;;;;12.83;71.30;99638.00;10338936;28;20042;-74
2022/12/26 09:31:26;;;;;;;2.10;1.20;;;;;;;13.26;69.20;99630.69;10338919;28;20050;-74
2022/12/26 09:36:31;;;;;;;1.95;1.30;;;;;;;13.54;68.30;99627.53;10344359;28;20046;-74
2022/12/26 09:41:46;;;;;;;2.50;1.42;;;;;;;13.48;69.67;99646.31;10341053;28;20125;-74
2022/12/26 09:47:15;;;;;;;3.20;1.38;;;;;;;13.61;68.23;99628.94;10340136;28;20050;-74
2022/12/26 09:52:21;;;;;;;;;;;;;;;13.45;67.78;99642.97;10342868;28;20031;-74
2022/12/26 09:57:36;;;;;;;5.40;1.20;;;;;;;13.41;68.27;99639.63;10341881;28;19965;-74
2022/12/26 10:02:38;;;;;;;2.40;1.20;;;;;;;13.28;68.41;99615.66;10343774;28;20137;-74
2022/12/26 10:07:48;;;;;;;2.25;1.30;;;;;;;13.18;68.75;99605.56;10341009;28;20146;-75
2022/12/26 10:13:05;;;;;;;2.22;1.08;;;;;;;13.06;69.46;99612.31;10339802;28;20564;-73
2022/12/26 10:18:21;;;;;;;2.97;1.10;;;;;;;13.07;71.03;99609.59;10340847;28;20046;-75
2022/12/26 10:23:29;;;;;;;;;;;;;;;12.72;76.20;99619.19;10342153;28;20488;-75
2022/12/26 10:28:34;;;;;;;2.95;1.38;;;;;;;12.61;75.54;99629.38;10339231;28;19926;-75
2022/12/26 10:34:05;;;;;;;3.55;1.13;;;;;;;12.62;75.36;99616.16;10337826;28;20050;-74
2022/12/26 10:39:16;;;;;;;1.40;1.10;;;;;;;12.71;75.16;99608.75;10334672;28;20061;-75
2022/12/26 10:44:19;;;;;;;2.58;1.23;;;;;;;12.77;74.23;99603.16;10341769;28;20042;-74
2022/12/26 10:49:28;;;;;;;1.58;1.27;;;;;;;12.70;73.54;99597.31;10338711;28;20097;-74
2022/12/26 10:54:31;;;;;;;2.65;1.33;;;;;;;12.77;74.77;99597.88;10324639;28;20078;-75
2022/12/26 10:59:47;;;;;;;3.42;2.03;;;;;;;12.90;74.27;99608.69;10359155;28;20496;-75
2022/12/26 11:05:06;;;;;;;1.88;1.38;;;;;;;12.84;74.97;99607.22;10357969;28;20048;-75
2022/12/26 11:10:28;;;;;;;2.33;1.10;;;;;;;13.01;73.85;99609.03;10380404;28;20551;-75
2022/12/26 11:15:32;;;;;;;2.03;1.50;;;;;;;13.17;72.14;99599.44;10384171;28;20045;-75
2022/12/26 11:20:34;;;;;;;2.05;1.30;;;;;;;13.16;72.65;99600.38;10379725;28;20092;-76
2022/12/26 11:25:50;;;;;;;1.48;1.10;;;;;;;13.14;72.13;99607.50;10367574;28;20096;-75
2022/12/26 11:30:53;;;;;;;2.05;1.20;;;;;;;13.34;70.87;99609.19;10362642;28;20073;-75
2022/12/26 11:36:00;;;;;;;2.25;1.23;;;;;;;13.56;69.84;99606.34;10342133;28;20050;-76
2022/12/26 11:41:37;;;;;;;2.05;1.20;;;;;;;13.50;69.96;99609.28;10343745;28;20064;-75
2022/12/26 11:46:54;;;;;;;2.55;1.30;;;;;;;13.33;70.45;99591.66;10346420;28;20054;-75
2022/12/26 11:51:59;;;;;;;2.50;1.00;;;;;;;13.23;69.86;99574.56;10352890;28;20050;-75
2022/12/26 11:57:07;;;;;;;1.48;0.90;;;;;;;13.06;70.61;99578.88;10353895;28;20050;-75
2022/12/26 12:02:25;;;;;;;1.85;0.93;;;;;;;13.06;71.06;99586.78;10354464;28;20065;-76
2022/12/26 12:07:52;;;;;;;1.98;1.00;;;;;;;12.97;71.63;99589.88;10355547;28;20500;-76
2022/12/26 12:13:20;;;;;;;;;;;;;;;12.79;71.82;99585.47;10358001;28;20089;-75
2022/12/26 12:18:28;;;;;;;1.00;0.65;;;;;;;12.75;72.09;99594.44;10351510;28;19922;-75
2022/12/26 12:23:58;;;;;;;2.30;1.02;;;;;;;12.69;72.44;99587.69;10349225;28;20053;-74
2022/12/26 12:29:51;;;;;;;1.67;0.95;;;;;;;12.64;72.74;99581.78;10331666;28;20051;-75
2022/12/26 12:35:30;;;;;;;0.77;0.68;;;;;;;12.60;71.99;99573.16;10318287;28;20487;-74
2022/12/26 12:41:04;;;;;;;1.50;1.00;;;;;;;12.53;72.86;99573.53;10347490;28;20570;-75
2022/12/26 12:46:25;;;;;;;1.73;0.95;;;;;;;12.60;72.93;99573.16;10316650;28;20141;-74
2022/12/26 12:51:44;;;;;;;1.42;0.80;;;;;;;12.54;73.69;99576.09;10350203;28;20050;-75
2022/12/26 12:57:18;;;;;;;0.98;0.70;;;;;;;12.49;73.69;99577.25;10321743;28;20050;-74
2022/12/26 13:02:26;;;;;;;1.13;0.70;;;;;;;12.31;74.44;99598.25;10279725;28;20102;-76
2022/12/26 13:07:35;;;;;;;1.70;0.80;;;;;;;11.92;82.37;99681.69;10335882;28;20487;-74
2022/12/26 13:12:44;;;;;;;1.48;0.50;;;;;;;10.49;90.38;99683.84;10385568;28;20391;-73
2022/12/26 13:18:12;;;;;;;2.33;0.70;;;;;;;9.81;97.89;99682.72;10385903;28;20052;-72
2022/12/26 13:29:31;;;;;;;0.68;0.63;;;;;;;9.54;100.00;99674.88;10386398;28;20069;-74
2022/12/26 13:34:33;;;;;;;1.40;0.50;;;;;;;9.66;100.00;99667.53;10381826;28;20108;-73
2022/12/26 13:39:36;;;;;;;1.35;0.60;;;;;;;9.75;100.00;99662.81;10385260;28;20042;-74
2022/12/26 13:44:38;;;;;;;0.63;0.60;;;;;;;9.79;98.90;99663.56;10366057;28;20056;-73
2022/12/26 13:49:40;;;;;;;0.95;0.60;;;;;;;9.90;99.11;99657.94;10382392;28;20034;-74
2022/12/26 13:54:45;;;;;;;1.27;0.60;;;;;;;9.86;99.95;99650.16;10381497;28;20503;-74
2022/12/26 14:00:05;;;;;;;0.82;0.45;;;;;;;9.88;99.35;99647.50;10386813;28;20565;-74
2022/12/26 14:05:20;;;;;;;1.70;0.68;;;;;;;9.94;97.82;99657.78;10382247;28;20125;-74
2022/12/26 14:10:42;;;;;;;;;;;;;;;9.84;98.29;99640.63;10380226;28;20052;-74
2022/12/26 14:15:56;;;;;;;2.72;1.35;;;;;;;9.93;97.46;99645.56;10380305;28;19921;-73
2022/12/26 14:21:36;;;;;;;2.30;0.70;;;;;;;9.83;98.18;99642.41;10381738;28;20137;-75
2022/12/26 14:27:07;;;;;;;0.82;0.50;;;;;;;9.82;96.67;99648.53;10379926;28;20061;-74
2022/12/26 14:32:26;;;;;;;1.58;0.47;;;;;;;9.93;92.19;99637.69;10378750;28;20141;-75
2022/12/26 14:37:41;;;;;;;0.30;0.30;;;;;;;9.98;88.75;99651.50;10378727;28;20049;-74
2022/12/26 14:43:10;;;;;;;0.32;0.32;;;;;;;10.00;89.73;99654.91;10384809;28;20038;-75
2022/12/26 14:48:15;;;;;;;0.85;0.50;;;;;;;9.96;88.50;99653.34;10376469;28;20064;-75
2022/12/26 14:53:26;;;;;;;0.80;0.70;;;;;;;9.88;90.46;99663.25;10379356;28;20053;-74
2022/12/26 14:58:31;;;;;;;0.30;0.30;;;;;;;9.84;89.08;99659.88;10392355;22;20057;-70
2022/12/26 15:03:57;;;;;;;0.93;0.30;;;;;;;10.05;87.26;99670.53;10374674;28;20053;-71
2022/12/26 15:09:08;;;;;;;0.77;0.50;;;;;;;10.02;88.00;99668.88;10374150;28;20076;-70
2022/12/26 15:14:30;;;;;;;1.17;0.40;;;;;;;9.91;88.49;99673.63;10374273;28;20048;-70
2022/12/26 15:19:34;;;;;;;1.58;0.70;;;;;;;9.76;89.22;99685.53;10373503;28;20042;-70
2022/12/26 15:24:58;;;;;;;0.40;0.40;;;;;;;9.77;88.65;99678.50;10381465;28;20395;-70
2022/12/26 15:30:29;;;;;;;1.65;0.68;;;;;;;9.71;89.86;99679.56;10381964;28;20046;-70
2022/12/26 15:35:39;;;;;;;1.02;0.40;;;;;;;9.52;91.36;99692.47;10381052;28;20077;-73
2022/12/26 15:41:10;;;;;;;0.57;0.57;;;;;;;9.55;91.78;99702.81;10381729;28;20488;-71
2022/12/26 15:46:26;;;;;;;2.42;1.20;;;;;;;9.59;91.64;99700.97;10380493;28;20049;-70
2022/12/26 15:51:40;;;;;;;1.30;0.90;;;;;;;9.69;91.59;99701.50;10381683;28;20073;-70
2022/12/26 15:57:00;;;;;;;2.15;1.33;;;;;;;9.35;94.85;99700.00;10381675;28;20050;-70
2022/12/26 16:02:08;;;;;;;1.23;1.02;;;;;;;9.29;96.06;99687.06;10380906;28;20492;-70
2022/12/26 16:07:42;;;;;;;1.35;1.13;;;;;;;9.12;97.75;99692.88;10381452;28;20041;-71
2022/12/26 16:13:21;;;;;;;1.48;1.00;;;;;;;9.33;96.92;99699.19;10380813;28;20069;-71
2022/12/26 16:18:29;;;;;;;2.03;0.85;;;;;;;9.34;97.56;99693.91;10380772;28;20045;-71
2022/12/26 16:23:36;;;;;;;1.10;1.00;;;;;;;9.08;98.80;99710.47;10380042;28;20050;-71
2022/12/26 16:28:40;;;;;;;1.90;1.50;;;;;;;8.97;100.00;99716.94;10378365;28;20049;-71
2022/12/26 16:33:42;;;;;;;2.22;1.30;;;;;;;9.00;100.00;99707.22;10378242;28;20550;-71
2022/12/26 16:38:44;;;;;;;1.70;1.40;;;;;;;8.82;100.00;99707.78;10379234;28;20049;-71
2022/12/26 16:43:48;;;;;;;2.03;1.70;;;;;;;8.69;100.00;99699.41;10379170;28;20108;-71
2022/12/26 16:48:56;;;;;;;2.17;1.65;;;;;;;8.58;100.00;99701.47;10378903;28;20048;-71
2022/12/26 16:54:19;;;;;;;1.95;1.50;;;;;;;8.51;100.00;99707.81;10379322;28;20046;-71
2022/12/26 16:59:23;;;;;;;1.92;1.40;;;;;;;8.57;100.00;99724.19;10378917;28;20092;-71
2022/12/26 17:04:27;;;;;;;3.53;2.00;;;;;;;8.61;100.00;99722.34;10378521;28;20057;-71
2022/12/26 17:09:37;;;;;;;2.95;1.65;;;;;;;8.65;100.00;99721.38;10378230;28;20049;-71
2022/12/26 17:14:44;;;;;;;1.70;1.50;;;;;;;8.68;100.00;99716.03;10379521;28;20046;-72
2022/12/26 17:19:47;;;;;;;2.38;1.50;;;;;;;8.81;100.00;99712.16;10378380;28;20463;-71
2022/12/26 17:25:28;;;;;;;1.70;1.10;;;;;;;9.06;99.80;99696.53;10378871;28;20092;-72
2022/12/26 17:30:31;;;;;;;1.23;1.13;;;;;;;9.35;96.92;99698.25;10293151;28;20130;-71
2022/12/26 17:35:34;;;;;;;1.23;1.08;;;;;;;9.57;93.28;99698.41;10290431;28;20074;-73
2022/12/26 17:40:59;;;;;;;2.15;0.80;;;;;;;9.68;91.76;99687.53;10274548;28;20051;-72
2022/12/26 17:46:03;;;;;;;1.73;0.98;;;;;;;9.83;89.54;99694.91;10274726;28;20042;-72
2022/12/26 17:51:06;;;;;;;1.42;0.70;;;;;;;9.98;88.12;99692.66;10292466;28;20061;-72
2022/12/26 17:56:21;;;;;;;2.17;0.93;;;;;;;10.01;87.31;99696.03;10292058;28;20055;-71
2022/12/26 18:01:23;;;;;;;1.48;0.90;;;;;;;10.04;86.62;99701.16;10290000;28;20512;-71
2022/12/26 18:06:25;;;;;;;1.10;1.00;;;;;;;10.05;86.54;99704.69;10341432;28;20108;-71
2022/12/26 18:11:27;;;;;;;1.50;0.70;;;;;;;10.19;85.10;99706.81;10370809;28;20049;-72
2022/12/26 18:16:28;;;;;;;0.90;0.70;;;;;;;10.32;84.11;99700.25;10363158;28;20049;-72
2022/12/26 18:21:30;;;;;;;2.33;0.88;;;;;;;10.25;84.58;99701.38;10372305;28;20115;-72
2022/12/26 18:26:32;;;;;;;0.90;0.60;;;;;;;10.21;84.75;99676.09;10374383;28;20088;-71
2022/12/26 18:31:33;;;;;;;1.25;0.60;;;;;;;10.36;84.19;99693.97;10375465;28;20050;-71
2022/12/26 18:36:37;;;;;;;1.67;0.50;;;;;;;10.38;84.48;99701.78;10373748;28;20045;-71
2022/12/26 18:41:39;;;;;;;0.60;0.60;;;;;;;10.20;87.49;99693.63;10374995;28;20479;-72
2022/12/26 18:46:41;;;;;;;1.00;0.60;;;;;;;10.13;87.33;99691.25;10375489;28;20034;-71
2022/12/26 18:51:42;;;;;;;1.10;0.50;;;;;;;10.13;86.92;99683.38;10374897;28;20479;-71
2022/12/26 18:56:44;;;;;;;0.70;0.50;;;;;;;9.89;89.66;99674.59;10373264;28;20431;-71
2022/12/26 19:01:46;;;;;;;2.08;0.70;;;;;;;9.84;89.97;99654.63;10373555;28;20112;-71
2022/12/26 19:06:48;;;;;;;2.05;0.70;;;;;;;9.60;91.22;99671.19;10373302;28;20072;-72
2022/12/26 19:11:50;;;;;;;1.10;0.40;;;;;;;9.56;90.55;99661.69;10373177;28;20038;-71
2022/12/26 19:16:51;;;;;;;0.60;0.60;;;;;;;9.39;90.98;99669.31;10373243;28;20415;-72
2022/12/26 19:21:53;;;;;;;1.10;0.55;;;;;;;9.33;89.51;99675.56;10377585;28;20046;-73
2022/12/26 19:26:55;;;;;;;1.08;0.60;;;;;;;9.32;88.20;99673.88;10375758;28;20471;-72
2022/12/26 19:31:56;;;;;;;0.70;0.50;;;;;;;9.25;88.08;99669.72;10373059;28;20479;-72
2022/12/26 19:36:58;;;;;;;0.60;0.60;;;;;;;9.24;87.71;99683.75;10373913;28;20089;-72
2022/12/26 19:42:00;;;;;;;1.10;0.55;;;;;;;9.27;85.59;99681.88;10372689;28;20038;-72
2022/12/26 19:47:01;;;;;;;1.80;0.40;;;;;;;9.10;87.61;99674.56;10372736;28;20381;-72
2022/12/26 19:52:13;;;;;;;0.30;0.30;;;;;;;9.10;86.25;99677.16;10371929;28;20482;-72
2022/12/26 19:57:15;;;;;;;0.57;0.40;;;;;;;9.21;84.97;99697.84;10371878;28;20393;-72
2022/12/26 20:02:16;;;;;;;0.30;0.30;;;;;;;9.17;85.42;99716.34;10372158;28;20038;-72
2022/12/26 20:07:19;;;;;;;2.55;0.47;;;;;;;9.26;83.50;99737.88;10373902;28;20054;-72
2022/12/26 20:12:20;;;;;;;0.77;0.40;;;;;;;9.20;85.36;99751.16;10380185;28;20052;-72
2022/12/26 20:17:22;;;;;;;0.30;0.30;;;;;;;9.05;88.06;99807.56;10379531;28;20053;-72
2022/12/26 20:22:24;;;;;;;0.75;0.40;;;;;;;8.89;93.23;99837.72;10379615;28;20409;-72
2022/12/26 20:27:26;;;;;;;1.55;0.40;;;;;;;8.38;99.40;99859.19;10378781;28;20104;-73
2022/12/26 20:32:28;;;;;;;1.10;0.70;;;;;;;8.04;100.00;99860.00;10378510;28;20038;-73
2022/12/26 20:37:30;;;;;;;1.45;0.60;;;;;;;7.87;100.00;99882.22;10379937;28;20487;-73
2022/12/26 20:42:32;;;;;;;1.95;0.82;;;;;;;7.77;100.00;99871.97;10380379;28;20045;-72
2022/12/26 20:47:34;;;;;;;1.05;0.60;;;;;;;7.73;100.00;99849.38;10380203;28;20057;-72
2022/12/26 20:52:36;;;;;;;1.42;0.77;;;;;;;7.46;100.00;99780.25;10380074;28;20109;-71
2022/12/26 20:57:37;;;;;;;1.92;0.98;;;;;;;7.48;100.00;99799.41;10379218;28;20048;-71
2022/12/26 21:02:39;;;;;;;1.95;1.00;;;;;;;7.42;100.00;99802.16;10400499;22;20038;-75
2022/12/26 21:07:41;;;;;;;1.08;1.00;;;;;;;7.47;100.00;99821.22;10386854;28;20530;-75
2022/12/26 21:12:44;;;;;;;1.90;1.65;;;;;;;7.62;100.00;99864.50;10383218;28;20050;-74
2022/12/26 21:17:46;;;;;;;3.30;2.20;;;;;;;7.34;100.00;99891.22;10364277;28;20052;-75
2022/12/26 21:22:48;;;;;;;3.22;2.40;;;;;;;7.14;100.00;99889.91;10381841;28;20117;-75
2022/12/26 21:27:49;;;;;;;2.10;1.60;;;;;;;7.13;100.00;99888.19;10382302;28;20061;-74
2022/12/26 21:32:58;;;;;;;3.58;1.70;;;;;;;6.98;100.00;99887.59;10382526;28;20073;-73
2022/12/26 21:38:02;;;;;;;2.70;1.33;;;;;;;6.83;100.00;99901.81;10378885;28;20129;-74
2022/12/26 21:43:04;;;;;;;4.25;1.20;;;;;;;6.69;100.00;99906.44;10378753;28;20061;-74
2022/12/26 21:48:06;;;;;;;4.05;1.02;;;;;;;6.47;100.00;99947.75;10378606;28;20058;-73
2022/12/26 21:53:08;;;;;;;2.75;1.20;;;;;;;6.33;100.00;99957.56;10379484;28;20042;-74
2022/12/26 21:58:10;;;;;;;3.75;1.70;;;;;;;6.30;100.00;99974.09;10378584;28;20052;-74
2022/12/26 22:08:32;;;;;;;3.20;1.45;;;;;;;6.26;100.00;100001.16;10378877;28;20081;-74
2022/12/26 22:13:43;;;;;;;6.90;1.50;;;;;;;6.03;100.00;100016.28;10379314;28;20385;-74
2022/12/26 22:18:46;;;;;;;4.00;1.60;;;;;;;5.85;100.00;100022.56;10379203;28;20046;-74
2022/12/26 22:23:50;;;;;;;3.58;1.40;;;;;;;5.61;100.00;100048.94;10379097;28;20042;-74
2022/12/26 22:28:52;;;;;;;2.15;0.90;;;;;;;5.21;96.28;100049.34;10379930;28;20073;-74
2022/12/26 22:33:56;;;;;;;7.15;1.10;;;;;;;5.06;95.54;100051.22;10377365;28;20038;-74
2022/12/26 22:38:59;;;;;;;5.25;1.20;;;;;;;5.02;97.41;100053.88;10377697;28;20121;-73
2022/12/26 22:44:01;;;;;;;4.40;1.00;;;;;;;4.95;99.12;100081.69;10376980;28;20038;-73
2022/12/26 22:49:03;;;;;;;9.00;1.60;;;;;;;4.89;100.00;100094.78;10376807;28;20120;-74
2022/12/26 22:54:05;;;;;;;3.65;1.50;;;;;;;4.97;100.00;100092.13;10377521;28;20095;-74
2022/12/26 22:59:10;;;;;;;7.22;1.73;;;;;;;5.00;100.00;100095.56;10377799;28;20049;-74
2022/12/26 23:04:12;;;;;;;4.03;1.38;;;;;;;5.02;99.19;100108.59;10379062;28;20048;-74
2022/12/26 23:09:16;;;;;;;5.18;1.83;;;;;;;4.98;96.65;100132.91;10377354;28;20122;-73
2022/12/26 23:14:18;;;;;;;5.05;1.65;;;;;;;4.96;96.33;100160.75;10377016;28;20117;-73
2022/12/26 23:25:10;;;;;;;5.35;1.40;;;;;;;4.66;97.55;100175.66;10376293;28;20415;-73
2022/12/26 23:30:18;;;;;;;8.30;1.70;;;;;;;4.41;98.12;100169.72;10374472;28;20045;-73
2022/12/26 23:35:21;;;;;;;8.00;1.17;;;;;;;4.34;98.07;100167.13;10376650;28;20483;-75
2022/12/26 23:40:23;;;;;;;6.60;1.40;;;;;;;4.26;97.93;100180.19;10375768;28;20056;-74
2022/12/26 23:45:25;;;;;;;3.30;1.15;;;;;;;4.18;98.15;100181.97;10381433;28;20046;-74
2022/12/26 23:50:26;;;;;;;5.25;1.08;;;;;;;4.32;95.94;100189.72;10383306;28;20116;-74
2022/12/26 23:55:31;;;;;;;11.70;1.70;;;;;;;4.34;98.25;100182.75;10383981;28;20050;-74
